createdAt,value
2022-12-16T00:01:38.974Z,17.48
2022-12-16T00:04:05.809Z,15.70
2022-12-16T00:06:33.963Z,14.90
2022-12-16T00:09:02.310Z,17.08
2022-12-16T00:11:32.094Z,15.23
2022-12-16T00:13:58.844Z,14.68
2022-12-16T00:16:25.705Z,14.35
2022-12-16T00:18:52.473Z,15.88
2022-12-16T00:21:20.736Z,15.27
2022-12-16T00:23:47.576Z,15.13
2022-12-16T00:26:14.716Z,13.65
2022-12-16T00:28:46.176Z,14.45
2022-12-16T00:31:13.123Z,14.07
2022-12-16T00:33:39.941Z,14.13
2022-12-16T00:36:08.230Z,13.65
2022-12-16T00:38:34.957Z,14.48
2022-12-16T00:41:02.176Z,14.48
2022-12-16T00:43:29.067Z,14.10
2022-12-16T00:45:57.628Z,13.80
2022-12-16T00:48:26.988Z,14.50
2022-12-16T00:50:56.065Z,14.63
2022-12-16T00:53:26.102Z,14.23
2022-12-16T00:56:18.328Z,14.27
2022-12-16T00:58:45.120Z,13.25
2022-12-16T01:01:12.498Z,13.10
2022-12-16T01:03:40.319Z,12.73
2022-12-16T01:06:12.744Z,14.13
2022-12-16T01:08:39.922Z,12.27
2022-12-16T01:11:06.687Z,14.02
2022-12-16T01:13:34.557Z,13.93
2022-12-16T01:16:02.706Z,12.88
2022-12-16T01:18:29.449Z,12.98
2022-12-16T01:21:03.281Z,12.85
2022-12-16T01:25:59.235Z,12.18
2022-12-16T01:28:26.991Z,12.20
2022-12-16T01:31:04.123Z,12.60
2022-12-16T01:33:33.307Z,12.60
2022-12-16T01:36:05.898Z,12.32
2022-12-16T01:38:34.306Z,14.00
2022-12-16T01:41:01.766Z,13.65
2022-12-16T01:43:35.718Z,12.48
2022-12-16T01:46:06.312Z,13.27
2022-12-16T01:48:52.124Z,12.10
2022-12-16T01:51:37.666Z,11.88
2022-12-16T01:54:10.265Z,11.43
2022-12-16T01:56:45.625Z,12.32
2022-12-16T01:59:16.836Z,12.23
2022-12-16T02:01:43.721Z,11.40
2022-12-16T02:04:10.575Z,11.35
2022-12-16T02:06:37.440Z,11.15
2022-12-16T02:09:08.108Z,11.02
2022-12-16T02:12:09.606Z,11.57
2022-12-16T02:15:11.371Z,13.10
2022-12-16T02:18:06.968Z,12.20
2022-12-16T02:21:02.707Z,11.27
2022-12-16T02:23:43.556Z,11.50
2022-12-16T02:26:50.303Z,11.60
2022-12-16T02:29:44.267Z,11.00
2022-12-16T02:32:39.724Z,9.35
2022-12-16T02:35:26.655Z,12.32
2022-12-16T02:38:11.100Z,11.00
2022-12-16T02:41:03.755Z,11.48
2022-12-16T02:43:55.440Z,12.15
2022-12-16T02:46:28.857Z,11.88
2022-12-16T02:48:56.446Z,11.57
2022-12-16T02:51:25.784Z,10.77
2022-12-16T02:53:54.076Z,11.73
2022-12-16T02:56:21.546Z,11.45
2022-12-16T02:58:51.205Z,11.23
2022-12-16T03:01:37.222Z,11.43
2022-12-16T03:04:13.040Z,10.35
2022-12-16T03:06:45.999Z,9.95
2022-12-16T03:09:15.462Z,10.55
2022-12-16T03:11:44.895Z,10.90
2022-12-16T03:14:16.852Z,10.18
2022-12-16T03:16:47.976Z,11.30
2022-12-16T03:19:15.301Z,9.77
2022-12-16T03:22:26.171Z,10.50
2022-12-16T03:24:54.244Z,10.13
2022-12-16T03:27:24.716Z,10.85
2022-12-16T03:30:03.368Z,11.40
2022-12-16T03:32:40.467Z,10.77
2022-12-16T03:35:20.473Z,9.88
2022-12-16T03:37:50.534Z,9.50
2022-12-16T03:40:18.579Z,10.50
2022-12-16T03:42:45.645Z,10.27
2022-12-16T03:45:19.314Z,10.73
2022-12-16T03:47:57.627Z,9.40
2022-12-16T03:50:29.964Z,10.43
2022-12-16T03:52:56.832Z,9.90
2022-12-16T03:55:26.054Z,10.00
2022-12-16T03:57:52.870Z,9.82
2022-12-16T04:00:20.391Z,10.27
2022-12-16T04:02:47.766Z,10.38
2022-12-16T04:05:15.191Z,9.30
2022-12-16T04:07:45.051Z,9.95
2022-12-16T04:10:12.029Z,10.80
2022-12-16T04:12:57.390Z,10.45
2022-12-16T04:15:46.422Z,9.88
2022-12-16T04:18:34.913Z,9.23
2022-12-16T04:21:20.869Z,9.98
2022-12-16T04:24:10.075Z,9.13
2022-12-16T04:26:56.779Z,9.38
2022-12-16T04:29:24.362Z,9.27
2022-12-16T04:31:52.327Z,10.18
2022-12-16T04:34:33.189Z,9.25
2022-12-16T04:37:20.719Z,9.77
2022-12-16T04:40:06.245Z,9.70
2022-12-16T04:42:52.141Z,10.00
2022-12-16T04:45:38.553Z,9.73
2022-12-16T04:48:24.335Z,9.32
2022-12-16T04:51:10.702Z,9.75
2022-12-16T04:53:56.158Z,9.20
2022-12-16T04:56:41.669Z,9.38
2022-12-16T04:59:26.874Z,10.05
2022-12-16T05:02:13.349Z,10.23
2022-12-16T05:04:58.977Z,10.15
2022-12-16T05:07:44.676Z,10.80
2022-12-16T05:10:30.044Z,9.57
2022-12-16T05:13:15.349Z,9.40
2022-12-16T05:16:00.844Z,8.82
2022-12-16T05:18:46.388Z,9.25
2022-12-16T05:21:31.936Z,8.85
2022-12-16T05:24:17.381Z,9.30
2022-12-16T05:27:02.769Z,8.80
2022-12-16T05:29:48.116Z,8.73
2022-12-16T05:32:33.303Z,8.63
2022-12-16T05:35:18.828Z,8.68
2022-12-16T05:38:04.490Z,9.25
2022-12-16T05:40:51.168Z,8.88
2022-12-16T05:43:36.754Z,8.73
2022-12-16T05:46:22.488Z,9.43
2022-12-16T05:49:08.204Z,8.93
2022-12-16T05:51:53.403Z,9.50
2022-12-16T05:54:39.049Z,10.80
2022-12-16T05:57:24.516Z,9.55
2022-12-16T06:00:09.849Z,10.02
2022-12-16T06:02:56.146Z,8.75
2022-12-16T06:05:41.708Z,11.18
2022-12-16T06:08:27.144Z,11.15
2022-12-16T06:11:12.762Z,11.45
2022-12-16T06:13:58.357Z,10.18
2022-12-16T06:16:43.874Z,10.70
2022-12-16T06:19:33.025Z,11.55
2022-12-16T06:22:18.482Z,12.13
2022-12-16T06:25:03.756Z,11.95
2022-12-16T06:27:55.032Z,11.63
2022-12-16T06:30:41.803Z,9.82
2022-12-16T06:33:44.092Z,9.30
2022-12-16T06:36:29.390Z,10.27
2022-12-16T06:39:15.160Z,9.40
2022-12-16T06:42:00.471Z,9.82
2022-12-16T06:44:47.578Z,9.20
2022-12-16T06:47:33.109Z,10.57
2022-12-16T06:50:18.352Z,9.95
2022-12-16T06:53:03.917Z,9.98
2022-12-16T06:55:50.009Z,9.60
2022-12-16T06:58:35.439Z,8.57
2022-12-16T07:01:20.793Z,9.13
2022-12-16T07:04:07.776Z,9.10
2022-12-16T07:06:53.558Z,8.73
2022-12-16T07:09:38.812Z,10.23
2022-12-16T07:12:28.644Z,9.98
2022-12-16T07:15:14.139Z,9.35
2022-12-16T07:18:00.199Z,8.88
2022-12-16T07:20:56.157Z,9.18
2022-12-16T07:23:41.855Z,9.10
2022-12-16T07:26:28.115Z,10.10
2022-12-16T07:29:13.860Z,8.13
2022-12-16T07:31:59.381Z,8.95
2022-12-16T07:34:49.874Z,9.85
2022-12-16T07:37:36.846Z,10.10
2022-12-16T07:40:22.917Z,9.55
2022-12-16T07:43:09.513Z,9.95
2022-12-16T07:45:56.499Z,9.55
2022-12-16T07:48:43.110Z,10.07
2022-12-16T07:51:29.145Z,12.30
2022-12-16T07:54:14.525Z,10.73
2022-12-16T07:57:01.135Z,11.05
2022-12-16T07:59:46.693Z,12.40
2022-12-16T08:02:32.237Z,12.35
2022-12-16T08:05:18.028Z,10.52
2022-12-16T08:08:03.614Z,11.15
2022-12-16T08:10:49.718Z,11.10
2022-12-16T08:13:35.492Z,10.38
2022-12-16T08:16:21.172Z,12.93
2022-12-16T08:19:10.947Z,11.20
2022-12-16T08:21:57.141Z,10.85
2022-12-16T08:24:46.802Z,9.65
2022-12-16T08:27:38.209Z,9.80
2022-12-16T08:30:24.272Z,11.27
2022-12-16T08:33:18.351Z,9.32
2022-12-16T08:36:05.152Z,10.35
2022-12-16T08:38:50.677Z,10.63
2022-12-16T08:41:36.296Z,11.35
2022-12-16T08:44:23.141Z,10.18
2022-12-16T08:47:09.752Z,9.43
2022-12-16T08:49:57.807Z,9.90
2022-12-16T08:52:46.887Z,9.52
2022-12-16T08:55:32.507Z,10.40
2022-12-16T08:58:17.803Z,10.52
2022-12-16T09:01:07.823Z,12.38
2022-12-16T09:03:54.656Z,17.08
2022-12-16T09:06:41.497Z,17.98
2022-12-16T09:09:27.669Z,26.27
2022-12-16T09:12:13.470Z,23.10
2022-12-16T09:14:59.046Z,23.05
2022-12-16T09:17:44.340Z,14.65
2022-12-16T09:20:30.313Z,11.63
2022-12-16T09:23:20.800Z,11.43
2022-12-16T09:26:06.288Z,11.18
2022-12-16T09:28:51.663Z,10.32
2022-12-16T09:31:37.146Z,11.57
2022-12-16T09:34:22.815Z,14.20
2022-12-16T09:37:09.524Z,13.73
2022-12-16T09:39:54.860Z,12.88
2022-12-16T09:42:58.056Z,12.15
2022-12-16T09:46:05.652Z,13.15
2022-12-16T09:49:20.544Z,12.60
2022-12-16T09:52:06.399Z,13.38
2022-12-16T09:54:55.995Z,12.32
2022-12-16T09:57:43.337Z,12.38
2022-12-16T10:00:42.171Z,11.98
2022-12-16T10:03:48.816Z,11.40
2022-12-16T10:06:49.524Z,11.35
2022-12-16T10:09:42.632Z,10.75
2022-12-16T10:12:53.845Z,11.50
2022-12-16T10:15:45.218Z,11.23
2022-12-16T10:18:42.953Z,11.77
2022-12-16T10:21:36.320Z,11.70
2022-12-16T10:24:52.731Z,11.65
2022-12-16T10:27:51.679Z,11.63
2022-12-16T10:30:38.570Z,12.82
2022-12-16T10:33:30.236Z,12.63
2022-12-16T10:36:15.864Z,13.20
2022-12-16T10:39:06.374Z,12.43
2022-12-16T10:41:54.933Z,14.80
2022-12-16T10:44:59.538Z,12.93
2022-12-16T10:47:45.115Z,14.35
2022-12-16T10:50:34.482Z,16.23
2022-12-16T10:53:24.260Z,17.55
2022-12-16T10:56:36.669Z,18.65
2022-12-16T10:59:24.589Z,16.67
2022-12-16T11:02:21.609Z,15.98
2022-12-16T11:05:08.832Z,15.20
2022-12-16T11:08:02.995Z,14.75
2022-12-16T11:11:02.220Z,13.93
2022-12-16T11:13:53.156Z,14.45
2022-12-16T11:16:46.956Z,13.43
2022-12-16T11:19:44.539Z,11.05
2022-12-16T11:22:35.947Z,13.82
2022-12-16T11:25:41.545Z,15.07
2022-12-16T11:28:35.407Z,14.85
2022-12-16T11:31:29.266Z,15.63
2022-12-16T11:34:16.706Z,16.27
2022-12-16T11:37:04.118Z,17.13
2022-12-16T11:39:51.272Z,16.08
2022-12-16T11:42:42.940Z,16.45
2022-12-16T11:45:37.700Z,15.55
2022-12-16T11:48:31.815Z,16.63
2022-12-16T11:51:18.378Z,17.48
2022-12-16T11:54:17.790Z,15.65
2022-12-16T11:57:04.779Z,15.68
2022-12-16T12:00:00.979Z,15.45
2022-12-16T12:02:57.857Z,15.05
2022-12-16T12:05:58.648Z,13.60
2022-12-16T12:09:00.239Z,15.27
2022-12-16T12:11:54.462Z,15.68
2022-12-16T12:15:05.775Z,13.90
2022-12-16T12:18:01.355Z,13.57
2022-12-16T12:21:11.395Z,13.00
2022-12-16T12:24:36.207Z,13.57
2022-12-16T12:27:34.263Z,15.27
2022-12-16T12:30:31.681Z,15.23
2022-12-16T12:33:45.992Z,15.88
2022-12-16T12:36:55.250Z,14.23
2022-12-16T12:40:06.989Z,15.02
2022-12-16T12:43:04.379Z,15.77
2022-12-16T12:46:19.613Z,15.52
2022-12-16T12:51:55.611Z,14.70
2022-12-16T12:55:09.412Z,15.85
2022-12-16T12:57:58.143Z,14.02
2022-12-16T13:00:45.929Z,16.10
2022-12-16T13:03:37.328Z,15.48
2022-12-16T13:06:24.137Z,15.40
2022-12-16T13:09:09.683Z,16.42
2022-12-16T13:11:56.411Z,16.30
2022-12-16T13:14:53.541Z,17.10
2022-12-16T13:17:42.890Z,15.57
2022-12-16T13:21:00.803Z,14.15
2022-12-16T13:23:51.290Z,14.48
2022-12-16T13:26:50.020Z,13.13
2022-12-16T13:29:45.758Z,13.95
2022-12-16T13:32:37.348Z,13.73
2022-12-16T13:35:26.267Z,14.25
2022-12-16T13:38:18.990Z,14.50
2022-12-16T13:41:50.590Z,15.40
2022-12-16T13:45:02.630Z,14.48
2022-12-16T13:48:12.900Z,14.13
2022-12-16T13:51:17.995Z,14.88
2022-12-16T13:54:08.672Z,15.15
2022-12-16T13:57:04.901Z,14.18
2022-12-16T13:59:51.558Z,15.43
2022-12-16T14:02:49.320Z,16.45
2022-12-16T14:05:47.414Z,21.02
2022-12-16T14:08:36.973Z,21.52
2022-12-16T14:11:25.671Z,23.75
2022-12-16T14:14:20.896Z,24.33
2022-12-16T14:17:19.680Z,23.75
2022-12-16T14:20:33.434Z,23.13
2022-12-16T14:23:56.380Z,17.10
2022-12-16T14:26:43.244Z,23.85
2022-12-16T14:29:40.984Z,22.83
2022-12-16T14:32:47.508Z,24.67
2022-12-16T14:35:37.289Z,22.05
2022-12-16T14:38:45.494Z,21.30
2022-12-16T14:41:37.929Z,19.88
2022-12-16T14:44:34.134Z,27.80
2022-12-16T14:47:19.730Z,25.17
2022-12-16T14:50:11.468Z,25.33
2022-12-16T14:52:58.018Z,24.80
2022-12-16T14:55:49.879Z,24.60
2022-12-16T14:58:43.073Z,22.17
2022-12-16T15:01:42.663Z,21.38
2022-12-16T15:04:36.213Z,22.60
2022-12-16T15:07:30.840Z,23.50
2022-12-16T15:10:18.109Z,21.00
2022-12-16T15:13:05.917Z,20.58
2022-12-16T15:15:55.886Z,24.00
2022-12-16T15:18:50.361Z,24.63
2022-12-16T15:21:36.752Z,24.52
2022-12-16T15:24:27.989Z,24.70
2022-12-16T15:27:52.538Z,26.67
2022-12-16T15:30:54.417Z,31.05
2022-12-16T15:33:43.748Z,30.60
2022-12-16T15:36:51.489Z,27.50
2022-12-16T15:39:42.806Z,31.52
2022-12-16T15:42:46.409Z,31.88
2022-12-16T15:45:44.840Z,33.72
2022-12-16T15:48:47.087Z,35.92
2022-12-16T15:51:40.181Z,37.50
2022-12-16T15:54:39.942Z,37.38
2022-12-16T15:57:47.139Z,33.75
2022-12-16T16:00:43.238Z,32.10
2022-12-16T16:03:44.637Z,31.67
2022-12-16T16:06:48.295Z,28.05
2022-12-16T16:09:34.564Z,32.70
2022-12-16T16:12:19.776Z,32.55
2022-12-16T16:15:05.457Z,33.65
2022-12-16T16:18:07.834Z,31.75
2022-12-16T16:20:52.996Z,28.67
2022-12-16T16:23:38.655Z,28.30
2022-12-16T16:26:24.268Z,26.85
2022-12-16T16:29:09.916Z,27.55
2022-12-16T16:32:03.602Z,27.10
2022-12-16T16:34:49.238Z,29.50
2022-12-16T16:37:37.892Z,31.02
2022-12-16T16:40:47.721Z,30.98
2022-12-16T16:43:33.543Z,30.63
2022-12-16T16:46:19.506Z,38.22
2022-12-16T16:49:04.819Z,42.38
2022-12-16T16:51:50.175Z,35.53
2022-12-16T16:54:35.812Z,29.77
2022-12-16T16:57:24.073Z,27.25
2022-12-16T17:00:09.582Z,28.10
2022-12-16T17:02:55.184Z,30.38
2022-12-16T17:05:40.561Z,31.50
2022-12-16T17:08:26.095Z,32.58
2022-12-16T17:11:11.632Z,31.60
2022-12-16T17:13:57.050Z,29.70
2022-12-16T17:16:42.714Z,26.52
2022-12-16T17:19:28.365Z,29.30
2022-12-16T17:22:13.896Z,26.75
2022-12-16T17:24:59.482Z,25.98
2022-12-16T17:27:45.464Z,26.45
2022-12-16T17:30:47.070Z,25.95
2022-12-16T17:33:34.465Z,21.60
2022-12-16T17:36:20.084Z,28.25
2022-12-16T17:39:05.656Z,25.45
2022-12-16T17:41:52.440Z,28.65
2022-12-16T17:44:38.586Z,26.75
2022-12-16T17:47:25.130Z,26.67
2022-12-16T17:50:10.644Z,25.63
2022-12-16T17:52:56.422Z,25.88
2022-12-16T17:55:44.023Z,70.22
2022-12-16T17:58:30.940Z,58.50
2022-12-16T18:01:25.254Z,38.20
2022-12-16T18:04:10.728Z,27.70
2022-12-16T18:06:56.108Z,37.00
2022-12-16T18:09:42.955Z,60.95
2022-12-16T18:12:28.439Z,33.75
2022-12-16T18:15:13.892Z,31.60
2022-12-16T18:18:00.568Z,28.88
2022-12-16T18:20:45.947Z,32.10
2022-12-16T18:23:33.352Z,28.88
2022-12-16T18:26:21.486Z,27.15
2022-12-16T18:29:06.870Z,27.27
2022-12-16T18:31:52.189Z,23.20
2022-12-16T18:34:37.951Z,24.63
2022-12-16T18:37:23.807Z,22.33
2022-12-16T18:40:10.465Z,23.88
2022-12-16T18:42:56.149Z,24.27
2022-12-16T18:45:41.378Z,25.77
2022-12-16T18:48:26.858Z,30.85
2022-12-16T18:51:17.528Z,28.05
2022-12-16T18:54:03.409Z,26.77
2022-12-16T18:56:48.914Z,25.02
2022-12-16T18:59:34.470Z,23.65
2022-12-16T19:02:19.772Z,23.85
2022-12-16T19:05:05.415Z,25.45
2022-12-16T19:07:50.699Z,23.75
2022-12-16T19:10:36.388Z,25.52
2022-12-16T19:13:21.649Z,29.95
2022-12-16T19:16:15.272Z,30.70
2022-12-16T19:19:00.742Z,26.75
2022-12-16T19:21:51.825Z,24.67
2022-12-16T19:24:38.808Z,21.88
2022-12-16T19:27:24.136Z,18.63
2022-12-16T19:30:09.357Z,19.13
2022-12-16T19:32:56.077Z,22.00
2022-12-16T19:35:41.361Z,21.10
2022-12-16T19:38:31.874Z,20.95
2022-12-16T19:41:17.195Z,24.13
2022-12-16T19:47:09.373Z,51.13
2022-12-16T19:49:56.031Z,23.73
2022-12-16T19:52:42.573Z,21.55
2022-12-16T19:55:27.957Z,23.13
2022-12-16T19:58:13.474Z,20.23
2022-12-16T20:00:59.209Z,31.83
2022-12-16T20:04:04.498Z,28.10
2022-12-16T20:06:56.045Z,23.00
2022-12-16T20:09:41.419Z,22.42
2022-12-16T20:12:26.780Z,22.52
2022-12-16T20:15:12.132Z,23.95
2022-12-16T20:17:57.452Z,22.83
2022-12-16T20:20:43.039Z,25.27
2022-12-16T20:23:28.730Z,24.52
2022-12-16T20:26:15.986Z,25.88
2022-12-16T20:29:01.581Z,22.77
2022-12-16T20:31:47.388Z,21.60
2022-12-16T20:34:32.910Z,39.33
2022-12-16T20:37:20.044Z,39.25
2022-12-16T20:40:05.956Z,27.98
2022-12-16T20:42:51.202Z,26.60
2022-12-16T20:45:39.206Z,27.80
2022-12-16T20:48:24.773Z,23.30
2022-12-16T20:54:26.256Z,23.55
2022-12-16T20:57:12.948Z,24.23
2022-12-16T20:59:58.471Z,22.90
2022-12-16T21:02:43.779Z,25.10
2022-12-16T21:05:29.336Z,24.35
2022-12-16T21:08:15.645Z,26.25
2022-12-16T21:11:00.916Z,22.55
2022-12-16T21:13:46.828Z,24.70
2022-12-16T21:16:32.301Z,23.83
2022-12-16T21:19:17.866Z,22.45
2022-12-16T21:22:03.645Z,24.73
2022-12-16T21:24:49.035Z,25.15
2022-12-16T21:27:34.257Z,23.67
2022-12-16T21:30:19.934Z,24.55
2022-12-16T21:33:05.310Z,26.77
2022-12-16T21:35:50.631Z,24.83
2022-12-16T21:38:38.106Z,24.17
2022-12-16T21:41:40.489Z,23.45
2022-12-16T21:44:25.835Z,22.85
2022-12-16T21:47:11.255Z,21.40
2022-12-16T21:49:57.077Z,22.38
2022-12-16T21:52:42.252Z,21.65
2022-12-16T21:55:28.287Z,25.33
2022-12-16T21:58:13.969Z,22.92
2022-12-16T22:01:00.858Z,24.80
2022-12-16T22:03:53.721Z,23.83
2022-12-16T22:06:39.046Z,24.90
2022-12-16T22:09:24.670Z,24.83
2022-12-16T22:12:10.196Z,24.20
2022-12-16T22:14:55.979Z,24.23
2022-12-16T22:17:41.579Z,24.88
2022-12-16T22:20:28.037Z,29.17
2022-12-16T22:23:13.503Z,22.75
2022-12-16T22:25:58.714Z,20.27
2022-12-16T22:28:44.582Z,20.40
2022-12-16T22:31:31.437Z,21.45
2022-12-16T22:34:17.336Z,22.67
2022-12-16T22:37:02.840Z,28.90
2022-12-16T22:39:48.366Z,23.95
2022-12-16T22:42:33.836Z,26.05
2022-12-16T22:45:20.788Z,23.67
2022-12-16T22:48:06.027Z,24.73
2022-12-16T22:50:51.738Z,27.38
2022-12-16T22:53:37.092Z,24.45
2022-12-16T22:56:22.820Z,24.98
2022-12-16T22:59:19.202Z,28.88
2022-12-16T23:02:05.870Z,26.75
2022-12-16T23:04:51.166Z,26.23
2022-12-16T23:07:38.160Z,25.17
2022-12-16T23:10:26.800Z,26.40
2022-12-16T23:13:12.299Z,23.70
2022-12-16T23:15:57.880Z,22.25
2022-12-16T23:18:43.442Z,26.08
2022-12-16T23:21:36.746Z,26.52
2022-12-16T23:24:21.976Z,23.80
2022-12-16T23:27:07.328Z,23.50
2022-12-16T23:29:53.644Z,28.83
2022-12-16T23:32:42.584Z,25.48
2022-12-16T23:35:28.152Z,26.23
2022-12-16T23:38:22.192Z,25.17
2022-12-16T23:41:07.787Z,23.58
2022-12-16T23:43:54.266Z,23.33
2022-12-16T23:46:41.602Z,22.88
2022-12-16T23:49:26.876Z,25.92
2022-12-16T23:52:12.309Z,26.30
2022-12-16T23:54:57.906Z,27.17
2022-12-16T23:57:43.653Z,28.58
